Time;durP1;ratioP1;P1;durP2;ratioP2;P2;SDS_P1;SDS_P2;PMS_P1;PMS_P2;Temp;Humidity;BMP_temperature;BMP_pressure;BME280_temperature;BME280_humidity;BME280_pressure;Samples;Min_cycle;Max_cycle;Signal;HPM_P1;HPM_P2
2022/09/19 00:02:30;;;;;;;9.73;4.10;;;8.00;99.90;;;;;;9860194;30;20040;-84
2022/09/19 00:07:30;;;;;;;9.40;4.53;;;8.00;99.90;;;;;;9862601;30;20055;-83
2022/09/19 00:12:32;;;;;;;15.47;6.23;;;7.90;99.90;;;;;;9845895;30;20583;-84
2022/09/19 00:17:32;;;;;;;8.97;4.00;;;7.90;99.90;;;;;;9847877;30;20074;-86
2022/09/19 00:22:33;;;;;;;21.43;9.60;;;7.90;99.90;;;;;;9864146;30;20126;-84
2022/09/19 00:27:34;;;;;;;11.83;5.20;;;7.90;99.90;;;;;;9844423;30;20043;-85
2022/09/19 00:32:34;;;;;;;10.30;5.10;;;7.90;99.90;;;;;;9846991;30;20046;-83
2022/09/19 00:37:35;;;;;;;7.80;3.97;;;7.90;99.90;;;;;;9848858;30;20071;-87
2022/09/19 00:42:35;;;;;;;9.87;4.40;;;7.90;99.90;;;;;;9858361;30;20067;-84
2022/09/19 00:47:47;;;;;;;20.47;9.53;;;7.90;99.90;;;;;;9844390;30;20056;-85
2022/09/19 03:05:11;;;;;;;20.10;7.43;;;7.70;99.90;;;;;;9785922;30;20060;-84
2022/09/19 03:10:14;;;;;;;11.98;6.05;;;7.70;99.90;;;;;;9789211;30;20267;-82
2022/09/19 03:15:16;;;;;;;16.27;5.87;;;7.60;99.90;;;;;;9791322;30;20051;-85
2022/09/19 03:20:18;;;;;;;22.10;12.73;;;7.60;99.90;;;;;;9786659;30;20051;-83
2022/09/19 03:25:19;;;;;;;22.43;10.93;;;7.50;99.90;;;;;;9786682;30;20040;-86
2022/09/19 03:30:20;;;;;;;23.67;11.53;;;7.50;99.90;;;;;;9775704;30;20045;-82
2022/09/19 03:35:22;;;;;;;21.60;9.43;;;7.40;99.90;;;;;;9792309;30;20090;-83
2022/09/19 03:40:22;;;;;;;21.50;11.33;;;7.30;99.90;;;;;;9792616;30;20147;-83
2022/09/19 03:45:23;;;;;;;25.17;9.07;;;7.20;99.90;;;;;;9791863;30;20445;-82
2022/09/19 03:50:23;;;;;;;21.87;8.40;;;7.20;99.90;;;;;;9790825;30;20094;-83
2022/09/19 03:55:25;;;;;;;18.07;7.67;;;7.20;99.90;;;;;;9790006;30;20037;-83
2022/09/19 04:00:25;;;;;;;17.87;7.17;;;7.20;99.90;;;;;;9797603;30;20409;-82
2022/09/19 04:05:26;;;;;;;24.40;7.63;;;7.30;99.90;;;;;;9848892;30;20083;-82
2022/09/19 04:10:27;;;;;;;29.67;10.47;;;7.40;99.90;;;;;;9863908;30;20122;-82
2022/09/19 04:15:27;;;;;;;46.80;21.57;;;7.40;99.90;;;;;;9845557;30;20028;-82
2022/09/19 04:20:29;;;;;;;45.77;21.20;;;7.40;99.90;;;;;;9857212;30;20024;-84
2022/09/19 04:25:34;;;;;;;34.17;14.93;;;7.50;99.90;;;;;;9845433;30;20641;-84
2022/09/19 04:30:36;;;;;;;40.13;17.27;;;7.50;99.90;;;;;;9845444;30;20035;-85
2022/09/19 04:35:38;;;;;;;33.60;14.13;;;7.50;99.90;;;;;;9846897;30;20067;-84
2022/09/19 04:40:45;;;;;;;37.50;15.67;;;7.60;99.90;;;;;;9853355;30;20098;-82
2022/09/19 04:45:48;;;;;;;35.67;14.80;;;7.70;99.90;;;;;;9859273;30;20067;-82
2022/09/19 04:50:50;;;;;;;35.23;13.90;;;7.70;99.90;;;;;;9861571;30;20117;-83
2022/09/19 04:55:52;;;;;;;35.43;13.77;;;7.80;99.90;;;;;;9863348;30;20051;-83
2022/09/19 05:00:55;;;;;;;28.50;12.20;;;7.80;99.90;;;;;;9861149;30;20059;-82
2022/09/19 05:05:55;;;;;;;29.43;12.00;;;7.80;99.90;;;;;;9863138;30;20062;-81
2022/09/19 05:10:58;;;;;;;37.73;14.33;;;7.90;99.90;;;;;;9860805;30;20043;-82
2022/09/19 05:16:01;;;;;;;37.10;15.57;;;7.90;99.90;;;;;;9857509;30;20105;-83
2022/09/19 05:21:05;;;;;;;33.70;14.63;;;8.00;99.90;;;;;;9862400;30;20067;-83
2022/09/19 05:26:08;;;;;;;41.03;16.80;;;8.10;99.90;;;;;;9858378;30;20385;-82
2022/09/19 05:31:09;;;;;;;37.47;16.50;;;8.10;99.90;;;;;;9857902;30;20069;-83
2022/09/19 05:36:10;;;;;;;48.70;22.13;;;8.10;99.90;;;;;;9845762;30;20465;-81
2022/09/19 05:41:10;;;;;;;40.23;16.67;;;8.10;99.90;;;;;;9842916;30;20028;-82
2022/09/19 05:46:11;;;;;;;33.97;17.17;;;8.20;99.90;;;;;;9858248;30;20035;-82
2022/09/19 05:51:11;;;;;;;34.03;14.27;;;8.30;99.90;;;;;;9844700;30;20043;-83
2022/09/19 05:56:12;;;;;;;28.73;12.30;;;8.20;99.90;;;;;;9860628;30;20046;-82
2022/09/19 06:01:13;;;;;;;26.63;12.17;;;8.30;99.90;;;;;;9860614;30;20508;-82
2022/09/19 06:06:18;;;;;;;33.43;15.07;;;8.30;99.90;;;;;;9861110;30;20038;-81
2022/09/19 06:11:19;;;;;;;43.30;23.77;;;8.30;99.90;;;;;;9860600;30;20047;-82
2022/09/19 06:16:20;;;;;;;34.60;15.33;;;8.40;99.90;;;;;;9861119;30;20043;-81
2022/09/19 06:21:20;;;;;;;35.33;20.37;;;8.40;99.90;;;;;;9861129;30;20179;-82
2022/09/19 06:26:21;;;;;;;47.17;25.17;;;8.40;99.90;;;;;;9843727;30;20081;-82
2022/09/19 06:31:22;;;;;;;27.83;12.10;;;8.40;99.90;;;;;;9841942;30;20043;-81
2022/09/19 06:36:22;;;;;;;21.47;11.40;;;8.50;99.90;;;;;;9860357;30;20102;-82
2022/09/19 06:41:24;;;;;;;18.87;10.33;;;8.70;99.90;;;;;;9863263;30;20031;-82
2022/09/19 06:46:24;;;;;;;20.00;11.03;;;8.80;99.90;;;;;;9867887;30;20031;-84
2022/09/19 06:51:25;;;;;;;22.40;9.80;;;8.90;99.90;;;;;;9856304;30;20472;-82
2022/09/19 06:56:26;;;;;;;17.90;8.93;;;8.90;99.90;;;;;;9872005;30;20044;-84
2022/09/19 07:01:26;;;;;;;20.50;10.13;;;9.00;99.90;;;;;;9870236;30;20086;-82
2022/09/19 07:06:27;;;;;;;15.00;8.23;;;9.10;99.90;;;;;;9871693;30;20039;-83
2022/09/19 07:11:27;;;;;;;17.53;7.77;;;9.20;99.90;;;;;;9871685;30;20050;-82
2022/09/19 07:16:28;;;;;;;15.67;7.83;;;9.20;99.90;;;;;;9872240;30;20067;-83
2022/09/19 07:21:29;;;;;;;24.03;9.20;;;9.20;99.90;;;;;;9872135;30;20036;-83
2022/09/19 07:26:30;;;;;;;16.97;8.50;;;9.20;99.90;;;;;;9871071;30;20512;-83
2022/09/19 07:31:30;;;;;;;15.98;8.93;;;9.30;99.90;;;;;;9872146;30;20178;-82
2022/09/19 07:36:31;;;;;;;14.07;7.60;;;9.80;99.90;;;;;;9871989;30;20027;-82
2022/09/19 07:41:31;;;;;;;13.63;6.85;;;9.80;99.90;;;;;;9854754;30;20059;-82
2022/09/19 07:46:32;;;;;;;14.43;7.20;;;9.80;99.90;;;;;;9869963;30;20031;-83
2022/09/19 07:51:34;;;;;;;8.35;5.65;;;9.80;99.90;;;;;;9867516;30;20047;-83
2022/09/19 07:56:35;;;;;;;12.30;7.10;;;9.80;99.90;;;;;;9863097;30;20059;-83
2022/09/19 08:01:36;;;;;;;11.07;5.60;;;9.90;99.90;;;;;;9849095;30;20059;-83
2022/09/19 08:06:36;;;;;;;18.67;8.88;;;10.00;99.90;;;;;;9864975;30;20032;-83
2022/09/19 08:11:37;;;;;;;12.88;6.40;;;10.00;99.90;;;;;;9861445;30;20052;-84
2022/09/19 08:16:38;;;;;;;8.70;6.03;;;9.90;99.90;;;;;;9861647;30;20082;-83
2022/09/19 08:21:38;;;;;;;15.00;7.28;;;10.00;99.90;;;;;;9860337;30;20035;-83
2022/09/19 08:26:39;;;;;;;6.40;4.68;;;10.20;99.90;;;;;;9844308;30;20367;-83
2022/09/19 08:31:39;;;;;;;7.43;3.63;;;10.10;99.90;;;;;;9863860;30;20040;-83
2022/09/19 08:36:40;;;;;;;7.80;4.97;;;10.10;99.90;;;;;;9863471;30;20108;-82
2022/09/19 08:42:02;;;;;;;6.25;3.45;;;10.00;99.90;;;;;;9863614;30;20047;-82
2022/09/19 08:47:10;;;;;;;8.68;5.07;;;10.00;99.90;;;;;;9860507;30;20031;-83
2022/09/19 08:52:22;;;;;;;13.40;6.18;;;9.90;99.90;;;;;;9860154;30;20046;-83
2022/09/19 08:57:31;;;;;;;8.25;4.60;;;9.90;99.90;;;;;;9863750;30;20386;-83
2022/09/19 09:02:41;;;;;;;9.55;3.92;;;9.90;99.90;;;;;;9858818;30;20067;-83
2022/09/19 09:07:47;;;;;;;7.87;5.10;;;9.70;99.90;;;;;;9857892;30;20073;-83
2022/09/19 09:13:05;;;;;;;6.28;3.28;;;9.70;99.90;;;;;;9861645;30;20047;-83
2022/09/19 09:18:30;;;;;;;5.30;3.47;;;9.80;99.90;;;;;;9861707;30;20536;-83
2022/09/19 09:23:39;;;;;;;5.07;2.58;;;10.00;99.90;;;;;;9863214;30;21395;-83
2022/09/19 09:28:44;;;;;;;6.00;3.33;;;10.20;99.90;;;;;;9854504;30;20047;-81
2022/09/19 09:33:59;;;;;;;4.22;2.58;;;10.20;99.90;;;;;;9861993;30;20103;-83
2022/09/19 09:39:16;;;;;;;10.23;4.82;;;10.20;99.90;;;;;;9858297;30;20042;-83
2022/09/19 09:44:51;;;;;;;3.53;2.05;;;10.40;99.90;;;;;;9852519;30;20031;-83
2022/09/19 09:49:59;;;;;;;4.00;1.90;;;10.50;99.90;;;;;;9859155;30;20032;-82
2022/09/19 10:06:05;;;;;;;4.00;3.15;;;10.60;99.90;;;;;;9857698;30;20055;-82
2022/09/19 10:11:33;;;;;;;5.28;3.55;;;10.30;99.90;;;;;;9856363;30;20055;-83
2022/09/19 10:16:35;;;;;;;5.97;3.38;;;10.40;99.90;;;;;;9859207;30;20036;-83
2022/09/19 10:21:38;;;;;;;10.48;6.10;;;10.20;99.90;;;;;;9859044;30;20505;-83
2022/09/19 10:26:38;;;;;;;4.43;3.05;;;10.30;99.90;;;;;;9860398;30;20065;-82
2022/09/19 10:31:40;;;;;;;5.53;3.67;;;10.60;99.90;;;;;;9857797;30;20540;-83
2022/09/19 10:36:46;;;;;;;5.78;3.95;;;11.60;99.90;;;;;;9860427;30;20027;-82
2022/09/19 10:41:49;;;;;;;3.38;2.40;;;12.10;99.90;;;;;;9857612;30;20108;-83
2022/09/19 10:46:55;;;;;;;4.82;3.17;;;11.60;99.90;;;;;;9859486;30;20165;-81
2022/09/19 10:51:59;;;;;;;6.45;4.15;;;11.20;99.90;;;;;;9843791;30;20139;-82
2022/09/19 10:57:01;;;;;;;6.25;3.53;;;11.00;99.90;;;;;;9860059;30;20074;-82
2022/09/19 11:02:22;;;;;;;10.18;4.97;;;11.10;99.90;;;;;;9859944;30;20051;-81
2022/09/19 11:07:28;;;;;;;4.03;2.67;;;11.70;99.90;;;;;;9842632;30;20040;-82
2022/09/19 11:12:33;;;;;;;2.42;1.70;;;11.80;99.90;;;;;;9858608;30;20050;-82
2022/09/19 11:17:48;;;;;;;6.33;3.50;;;11.50;99.90;;;;;;9859654;30;20035;-82
2022/09/19 11:22:58;;;;;;;3.58;2.40;;;11.10;99.90;;;;;;9859805;30;20030;-82
2022/09/19 11:28:22;;;;;;;4.45;3.13;;;11.00;99.90;;;;;;9859266;30;20052;-82
2022/09/19 11:33:45;;;;;;;7.22;3.70;;;11.00;99.90;;;;;;9866008;30;20552;-83
2022/09/19 11:39:03;;;;;;;4.20;3.35;;;10.40;99.90;;;;;;9864548;30;20469;-82
2022/09/19 11:44:21;;;;;;;7.80;4.43;;;10.20;99.90;;;;;;9861933;30;20397;-82
2022/09/19 11:49:31;;;;;;;3.97;2.85;;;10.50;99.90;;;;;;9844796;30;20051;-82
2022/09/19 11:54:46;;;;;;;3.88;3.00;;;10.70;99.90;;;;;;9856993;30;20032;-83
2022/09/19 12:00:04;;;;;;;5.05;3.40;;;10.90;99.90;;;;;;9860987;30;20712;-82
2022/09/19 12:05:15;;;;;;;7.28;3.72;;;11.10;99.90;;;;;;9859540;30;20043;-83
2022/09/19 12:10:35;;;;;;;5.90;3.90;;;11.20;99.90;;;;;;9856159;30;20047;-84
2022/09/19 12:15:39;;;;;;;7.20;4.60;;;10.90;99.90;;;;;;9860685;30;20058;-83
2022/09/19 12:20:44;;;;;;;11.55;6.00;;;10.70;99.90;;;;;;9861007;30;20030;-83
2022/09/19 12:25:45;;;;;;;7.70;4.80;;;10.80;99.90;;;;;;9857488;30;20596;-85
2022/09/19 12:30:49;;;;;;;8.82;4.95;;;11.00;99.90;;;;;;9856054;30;20231;-82
2022/09/19 12:36:04;;;;;;;6.07;3.60;;;11.00;99.90;;;;;;9864021;30;20078;-81
2022/09/19 12:41:26;;;;;;;7.25;4.25;;;11.00;99.90;;;;;;9861725;30;20115;-81
2022/09/19 12:47:04;;;;;;;8.23;4.40;;;11.20;99.90;;;;;;9838546;30;20032;-81
2022/09/19 12:52:14;;;;;;;5.25;2.83;;;12.00;99.90;;;;;;9860533;30;20071;-82
2022/09/19 12:57:23;;;;;;;5.07;3.17;;;12.30;99.90;;;;;;9862998;30;20677;-82
2022/09/19 13:02:29;;;;;;;5.20;3.63;;;11.70;99.90;;;;;;9858870;30;20078;-83
2022/09/19 13:07:51;;;;;;;3.58;2.88;;;11.30;99.90;;;;;;9851693;30;20074;-83
2022/09/19 13:12:58;;;;;;;9.80;4.60;;;11.20;99.90;;;;;;9861678;30;20122;-83
2022/09/19 13:23:32;;;;;;;4.43;2.42;;;12.10;99.90;;;;;;9858945;30;20731;-82
2022/09/19 13:28:48;;;;;;;7.15;2.75;;;12.10;99.90;;;;;;9858915;30;20130;-82
2022/09/19 13:33:50;;;;;;;4.63;2.83;;;12.30;99.90;;;;;;9853910;30;20039;-83
2022/09/19 13:39:03;;;;;;;5.95;3.50;;;12.30;99.90;;;;;;9859992;30;20139;-82
2022/09/19 13:44:29;;;;;;;4.63;2.85;;;12.00;99.90;;;;;;9857981;30;20036;-82
2022/09/19 13:49:41;;;;;;;5.88;3.08;;;11.70;99.90;;;;;;9852291;30;20063;-83
2022/09/19 13:54:52;;;;;;;6.45;3.03;;;11.70;99.90;;;;;;9858456;30;20144;-84
2022/09/19 13:59:58;;;;;;;3.80;2.10;;;11.60;99.90;;;;;;9844352;30;20067;-86
2022/09/19 14:05:19;;;;;;;7.15;3.70;;;11.70;99.90;;;;;;9859262;30;20035;-85
2022/09/19 14:10:35;;;;;;;6.25;2.83;;;11.80;99.90;;;;;;9859603;30;20093;-85
2022/09/19 14:15:41;;;;;;;3.40;2.10;;;12.20;99.90;;;;;;9844750;30;20100;-86
2022/09/19 14:20:48;;;;;;;17.15;9.20;;;12.20;99.90;;;;;;9839064;30;20660;-84
2022/09/19 14:26:08;;;;;;;8.95;4.85;;;12.20;99.90;;;;;;9853862;30;20666;-83
2022/09/19 14:31:36;;;;;;;10.90;5.13;;;12.10;99.90;;;;;;9856803;30;20046;-83
2022/09/19 14:37:29;;;;;;;12.00;5.80;;;12.20;99.90;;;;;;9860409;30;20101;-85
2022/09/19 14:42:56;;;;;;;12.32;4.95;;;12.30;99.90;;;;;;9859745;30;20086;-84
2022/09/19 14:48:08;;;;;;;8.13;4.30;;;12.50;99.90;;;;;;9859287;30;20042;-86
2022/09/19 14:53:25;;;;;;;7.47;4.85;;;12.30;99.90;;;;;;9858390;30;20039;-85
2022/09/19 14:58:28;;;;;;;9.43;4.47;;;12.00;99.90;;;;;;9859965;30;20040;-84
2022/09/19 15:03:29;;;;;;;11.55;5.63;;;12.00;99.90;;;;;;9848048;30;20095;-83
2022/09/19 15:08:30;;;;;;;15.32;6.85;;;11.80;99.90;;;;;;9865896;30;20142;-83
2022/09/19 15:13:33;;;;;;;9.98;5.50;;;11.70;99.90;;;;;;9848891;30;20052;-84
2022/09/19 15:18:39;;;;;;;20.08;10.40;;;11.70;99.90;;;;;;9860979;30;20445;-85
2022/09/19 15:23:43;;;;;;;16.08;7.95;;;11.60;99.90;;;;;;9864171;30;20040;-84
2022/09/19 15:29:04;;;;;;;10.48;4.45;;;11.50;99.90;;;;;;9865004;30;20140;-84
2022/09/19 15:34:10;;;;;;;9.40;4.15;;;11.30;99.90;;;;;;9861326;30;20472;-83
2022/09/19 15:39:12;;;;;;;;;;;10.80;99.90;;;;;;9859869;30;20057;-84
2022/09/19 15:44:26;;;;;;;3.88;2.70;;;10.20;99.90;;;;;;9865558;30;19922;-83
2022/09/19 15:49:33;;;;;;;7.88;3.70;;;9.90;99.90;;;;;;9863895;30;20043;-83
2022/09/19 15:54:44;;;;;;;11.60;7.97;;;9.70;99.90;;;;;;9865607;30;20168;-83
2022/09/19 15:59:48;;;;;;;52.50;25.30;;;9.70;99.90;;;;;;9848048;30;20475;-83
2022/09/19 16:05:06;;;;;;;40.92;22.33;;;9.60;99.90;;;;;;9862464;30;20093;-83
2022/09/19 16:10:17;;;;;;;34.90;21.63;;;9.60;99.90;;;;;;9864671;30;20105;-82
2022/09/19 16:15:24;;;;;;;45.78;25.05;;;9.60;99.90;;;;;;9860551;30;20139;-82
2022/09/19 16:20:30;;;;;;;34.15;19.17;;;9.50;99.90;;;;;;9861381;30;20040;-83
2022/09/19 16:25:52;;;;;;;22.83;13.77;;;9.50;99.90;;;;;;9864290;30;20027;-84
2022/09/19 16:31:22;;;;;;;33.37;20.30;;;9.50;99.90;;;;;;9861428;30;20558;-83
2022/09/19 16:36:23;;;;;;;72.07;43.33;;;9.50;99.90;;;;;;9855795;30;20122;-84
2022/09/19 16:41:26;;;;;;;79.70;50.07;;;9.50;99.90;;;;;;9863176;30;20044;-84
2022/09/19 16:46:26;;;;;;;80.27;53.77;;;9.50;99.90;;;;;;9862377;30;20481;-85
2022/09/19 16:51:28;;;;;;;82.38;53.05;;;9.40;99.90;;;;;;9861249;30;20052;-84
2022/09/19 16:56:28;;;;;;;61.40;36.70;;;9.40;99.90;;;;;;9846160;30;20615;-85
2022/09/19 17:01:29;;;;;;;115.57;58.50;;;9.40;99.90;;;;;;9862382;30;20067;-84
2022/09/19 17:06:31;;;;;;;48.90;26.53;;;9.40;99.90;;;;;;9845075;30;20086;-84
2022/09/19 17:11:31;;;;;;;36.73;21.50;;;9.50;99.90;;;;;;9845084;30;20052;-84
2022/09/19 17:16:32;;;;;;;32.50;19.17;;;9.50;99.90;;;;;;9857382;30;20151;-84
2022/09/19 17:21:33;;;;;;;52.77;29.63;;;9.50;99.90;;;;;;9862821;30;20503;-84
2022/09/19 17:26:33;;;;;;;57.73;30.60;;;9.60;99.90;;;;;;9857785;30;20057;-85
2022/09/19 17:31:35;;;;;;;61.57;32.67;;;9.60;99.90;;;;;;9840302;30;20096;-85
2022/09/19 17:36:35;;;;;;;59.85;31.15;;;9.50;99.90;;;;;;9861317;30;20554;-83
2022/09/19 17:41:36;;;;;;;58.53;28.73;;;9.60;99.90;;;;;;9860494;30;20044;-84
2022/09/19 17:46:37;;;;;;;89.37;39.60;;;9.50;99.90;;;;;;9858425;30;20097;-84
2022/09/19 17:51:38;;;;;;;87.95;33.75;;;9.50;99.90;;;;;;9839144;30;20151;-83
2022/09/19 17:56:39;;;;;;;47.13;24.30;;;9.50;99.90;;;;;;9844661;30;20067;-82
2022/09/19 18:06:58;;;;;;;53.20;24.00;;;9.40;99.90;;;;;;9851591;30;20044;-83
2022/09/19 18:11:59;;;;;;;41.87;20.90;;;9.40;99.90;;;;;;9857236;30;20405;-84
2022/09/19 18:16:59;;;;;;;28.97;15.87;;;9.40;99.90;;;;;;9841154;30;20370;-83
2022/09/19 18:22:00;;;;;;;40.47;19.73;;;9.40;99.90;;;;;;9858858;30;20378;-84
2022/09/19 18:27:01;;;;;;;40.53;19.63;;;9.40;99.90;;;;;;9840694;30;20043;-85
2022/09/19 18:32:02;;;;;;;39.10;19.87;;;9.30;99.90;;;;;;9859063;30;20040;-83
2022/09/19 18:37:02;;;;;;;36.73;18.27;;;9.30;99.90;;;;;;9843579;30;20112;-84
2022/09/19 18:42:03;;;;;;;39.10;18.08;;;9.30;99.90;;;;;;9860186;30;20080;-81
2022/09/19 18:47:04;;;;;;;40.87;21.07;;;9.40;99.90;;;;;;9857809;30;20044;-86
2022/09/19 18:52:05;;;;;;;53.93;24.40;;;9.40;99.90;;;;;;9857499;30;20396;-83
2022/09/19 18:57:05;;;;;;;59.30;30.10;;;9.40;99.90;;;;;;9854582;30;20051;-83
2022/09/19 19:02:07;;;;;;;69.50;32.47;;;9.40;99.90;;;;;;9858267;30;20062;-84
2022/09/19 19:07:08;;;;;;;75.90;34.90;;;9.40;99.90;;;;;;9857736;30;20052;-82
2022/09/19 19:12:09;;;;;;;76.47;33.97;;;9.30;99.90;;;;;;9857805;30;20047;-84
2022/09/19 19:17:09;;;;;;;79.27;37.00;;;9.30;99.90;;;;;;9842310;30;20051;-82
2022/09/19 19:22:10;;;;;;;71.37;35.07;;;9.40;99.90;;;;;;9859324;30;20051;-83
2022/09/19 19:27:11;;;;;;;81.33;37.23;;;9.30;99.90;;;;;;9855506;30;20387;-82
2022/09/19 19:32:11;;;;;;;86.87;38.33;;;9.30;99.90;;;;;;9854292;30;20032;-85
2022/09/19 19:37:12;;;;;;;87.17;39.77;;;9.40;99.90;;;;;;9859841;30;20032;-83
2022/09/19 19:42:13;;;;;;;94.63;39.13;;;9.40;99.90;;;;;;9858851;30;20044;-82
2022/09/19 19:47:13;;;;;;;94.30;40.10;;;9.40;99.90;;;;;;9853954;30;20048;-81
2022/09/19 19:52:14;;;;;;;80.73;36.07;;;9.50;99.90;;;;;;9861764;30;20454;-81
2022/09/19 19:57:14;;;;;;;81.03;35.22;;;9.50;99.90;;;;;;9862105;30;20496;-82
2022/09/19 20:02:15;;;;;;;84.50;37.95;;;9.40;99.90;;;;;;9863091;30;20130;-81
2022/09/19 20:07:15;;;;;;;74.10;33.27;;;9.50;99.90;;;;;;9865225;30;20509;-82
2022/09/19 20:12:16;;;;;;;77.82;34.08;;;9.50;99.90;;;;;;9860834;30;20055;-81
2022/09/19 20:17:16;;;;;;;67.67;30.33;;;9.50;99.90;;;;;;9861837;30;20516;-83
2022/09/19 20:22:17;;;;;;;74.97;31.20;;;9.50;99.90;;;;;;9864838;30;20051;-82
2022/09/19 20:27:17;;;;;;;77.37;31.80;;;9.50;99.90;;;;;;9859453;30;20040;-83
2022/09/19 20:32:18;;;;;;;69.00;31.53;;;9.50;99.90;;;;;;9863287;30;20063;-81
2022/09/19 20:37:19;;;;;;;65.30;27.90;;;9.50;99.90;;;;;;9864158;30;20525;-82
2022/09/19 20:42:19;;;;;;;69.75;30.55;;;9.60;99.90;;;;;;9863545;30;20028;-82
2022/09/19 20:47:21;;;;;;;64.40;28.13;;;9.60;99.90;;;;;;9862850;30;20043;-82
2022/09/19 20:52:21;;;;;;;91.32;45.05;;;9.70;99.90;;;;;;9863907;30;20032;-82
2022/09/19 20:57:22;;;;;;;86.30;42.33;;;9.70;99.90;;;;;;9847318;30;20094;-82
2022/09/19 21:02:23;;;;;;;88.75;42.53;;;9.70;99.90;;;;;;9846049;30;20056;-82
2022/09/19 21:07:24;;;;;;;86.10;40.80;;;9.80;99.90;;;;;;9863021;30;20401;-85
2022/09/19 21:12:26;;;;;;;63.08;31.17;;;9.90;99.90;;;;;;9860557;30;20039;-82
2022/09/19 21:17:26;;;;;;;92.95;37.00;;;9.90;99.90;;;;;;9862004;30;20036;-83
2022/09/19 21:22:28;;;;;;;74.60;30.80;;;9.90;99.90;;;;;;9857055;30;20389;-82
2022/09/19 21:27:28;;;;;;;74.60;30.63;;;9.90;99.90;;;;;;9862188;30;20039;-82
2022/09/19 21:32:29;;;;;;;74.57;32.17;;;9.90;99.90;;;;;;9862209;30;20598;-82
2022/09/19 21:37:29;;;;;;;78.80;33.33;;;9.90;99.90;;;;;;9861924;30;20092;-85
2022/09/19 21:42:30;;;;;;;98.77;49.83;;;9.90;99.90;;;;;;9861096;30;20649;-83
2022/09/19 21:47:31;;;;;;;67.78;27.50;;;10.00;99.90;;;;;;9859272;30;20043;-81
2022/09/19 21:52:31;;;;;;;60.67;28.13;;;10.00;99.90;;;;;;9844783;30;20071;-82
2022/09/19 21:57:33;;;;;;;55.92;25.38;;;10.00;99.90;;;;;;9859111;30;20651;-82
2022/09/19 22:02:33;;;;;;;55.88;27.83;;;10.00;99.90;;;;;;9858810;30;20147;-83
2022/09/19 22:07:34;;;;;;;38.95;18.23;;;10.00;99.90;;;;;;9861055;30;20679;-81
2022/09/19 22:12:34;;;;;;;61.05;29.50;;;10.00;99.90;;;;;;9858152;30;20038;-82
2022/09/19 22:17:35;;;;;;;62.85;27.98;;;10.00;99.90;;;;;;9857891;30;20735;-81
2022/09/19 22:22:35;;;;;;;45.95;21.35;;;9.90;99.90;;;;;;9859004;30;20036;-82
2022/09/19 22:27:36;;;;;;;36.72;19.02;;;9.80;99.90;;;;;;9859828;30;20079;-83
2022/09/19 22:32:36;;;;;;;45.58;27.52;;;9.80;99.90;;;;;;9859860;30;20470;-82
2022/09/19 22:37:38;;;;;;;34.93;18.17;;;9.80;99.90;;;;;;9858804;30;20484;-84
2022/09/19 22:42:38;;;;;;;41.40;22.37;;;9.70;99.90;;;;;;9858532;30;20661;-82
2022/09/19 22:47:39;;;;;;;47.20;22.52;;;9.70;99.90;;;;;;9858095;30;20051;-83
2022/09/19 22:52:39;;;;;;;57.70;27.03;;;9.70;99.90;;;;;;9843207;30;20394;-82
2022/09/19 22:57:40;;;;;;;73.53;31.97;;;9.70;99.90;;;;;;9860615;30;20039;-82
2022/09/19 23:02:40;;;;;;;46.30;21.73;;;9.60;99.90;;;;;;9858357;30;20059;-82
2022/09/19 23:07:42;;;;;;;53.50;26.73;;;9.60;99.90;;;;;;9843681;30;20044;-82
2022/09/19 23:12:42;;;;;;;65.97;29.70;;;9.60;99.90;;;;;;9858305;30;20409;-82
2022/09/19 23:17:43;;;;;;;54.50;25.23;;;9.70;99.90;;;;;;9859566;30;20054;-82
2022/09/19 23:22:43;;;;;;;53.70;23.92;;;9.70;99.90;;;;;;9844025;30;20412;-83
2022/09/19 23:27:44;;;;;;;51.50;23.63;;;9.70;99.90;;;;;;9849706;30;20047;-84
2022/09/19 23:32:45;;;;;;;45.50;22.77;;;9.70;99.90;;;;;;9865699;30;20748;-83
2022/09/19 23:37:45;;;;;;;47.53;21.90;;;9.70;99.90;;;;;;9863047;30;20055;-83
2022/09/19 23:42:46;;;;;;;40.75;19.60;;;9.70;99.90;;;;;;9851829;30;20398;-85
2022/09/19 23:47:46;;;;;;;39.53;20.00;;;9.80;99.90;;;;;;9862084;30;20726;-83
2022/09/19 23:52:47;;;;;;;38.00;19.88;;;9.80;99.90;;;;;;9865609;30;20116;-82
2022/09/19 23:57:48;;;;;;;39.65;20.60;;;9.80;99.90;;;;;;9865861;30;20338;-81
